Date,TemperatureHighF,TemperatureAvgF,TemperatureLowF,DewpointHighF,DewpointAvgF,DewpointLowF,HumidityHigh,HumidityAvg,HumidityLow,PressureMaxIn,PressureMinIn,WindSpeedMaxMPH,WindSpeedAvgMPH,GustSpeedMaxMPH,PrecipitationSumIn
2013-2-1,67.5,52.9,42.1,45.5,39.2,36.1,45,44,42,30.01,29.90,0,-999,0,0.00
2013-2-2,59.9,51.8,46.6,47.8,42.9,38.5,47,46,45,30.07,29.99,0,-999,0,0.00
2013-2-3,61.5,52.0,45.1,46.2,39.6,36.1,47,46,45,30.04,29.93,0,-999,0,0.00
2013-2-4,60.6,50.4,42.8,47.8,42.5,36.3,48,47,47,29.99,29.87,0,-999,0,0.00
2013-2-5,59.4,52.4,44.1,44.4,40.4,35.4,48,48,47,29.96,29.87,0,-999,0,0.00
2013-2-6,62.4,49.4,41.2,43.3,35.5,32.7,48,46,45,29.99,29.90,0,-999,0,0.00
2013-2-7,59.4,48.0,40.8,45.5,35.3,29.5,46,46,46,29.99,29.81,0,-999,0,0.00
2013-2-8,55.9,47.7,42.3,41.5,34.8,25.3,47,46,46,29.81,29.75,0,-999,0,0.04
2013-2-9,60.1,47.9,37.9,28.8,25.0,22.6,46,44,41,29.90,29.78,0,-999,0,0.00
2013-2-10,61.3,46.8,35.8,30.4,27.5,24.1,43,42,40,29.93,29.81,0,-999,0,0.00
2013-2-11,64.0,48.7,38.7,31.6,27.0,23.4,43,42,40,30.01,29.84,0,-999,0,0.00
2013-2-12,62.8,48.3,37.6,40.8,31.6,25.2,43,42,40,30.13,30.01,0,-999,0,0.00
2013-2-13,65.8,50.0,39.2,41.0,34.2,31.1,45,43,41,30.13,30.01,0,-999,0,0.00
2013-2-14,69.3,53.4,41.2,40.3,34.7,32.7,45,44,41,30.04,29.93,0,-999,0,0.00
2013-2-15,72.0,55.6,43.2,38.5,34.8,32.0,45,44,42,30.04,29.99,0,-999,0,0.00
2013-2-16,68.4,54.8,44.6,41.9,37.2,31.6,46,45,44,31.02,29.81,0,-999,0,0.00
2013-2-17,66.4,52.7,44.4,45.5,38.5,34.5,47,46,45,31.02,31.02,0,-999,0,0.00
2013-2-18,55.0,48.4,41.9,41.7,34.5,29.1,47,46,45,31.02,31.02,0,-999,0,0.00
2013-2-19,50.7,46.0,41.7,41.5,34.8,29.8,47,46,46,31.02,17.73,0,-999,0,0.17
2013-2-20,61.3,47.4,36.5,37.9,31.0,27.5,47,45,42,17.73,17.73,0,-999,0,0.00
2013-2-21,61.5,48.6,39.4,37.2,30.1,24.8,46,44,42,17.73,17.73,0,-999,0,0.00
2013-2-22,64.6,49.9,37.8,36.7,31.6,25.0,45,44,41,17.73,17.73,0,-999,0,0.00
2013-2-23,61.3,51.8,46.6,44.1,32.5,24.4,46,45,44,17.73,17.73,0,-999,0,0.00
2013-2-24,63.9,50.5,39.6,26.4,24.3,21.6,45,43,41,17.73,17.73,0,-999,0,0.00
2013-2-25,64.4,49.5,38.7,36.0,31.1,23.2,45,43,40,17.73,17.73,0,-999,0,0.00
2013-2-26,67.5,51.0,39.2,33.6,27.9,22.5,45,44,41,17.73,17.73,0,-999,0,0.00
2013-2-27,68.5,52.3,38.7,37.6,30.6,24.6,44,42,41,17.73,17.73,0,-999,0,0.00
2013-2-28,69.4,55.2,44.2,47.5,40.5,35.1,43,42,41,17.73,17.73,0,-999,0,0.00